Time;durP1;ratioP1;P1;durP2;ratioP2;P2;SDS_P1;SDS_P2;PMS_P1;PMS_P2;Temp;Humidity;BMP_temperature;BMP_pressure;BME280_temperature;BME280_humidity;BME280_pressure;Samples;Min_cycle;Max_cycle;Signal;HPM_P1;HPM_P2
2023/10/26 00:00:33;;;;;;;6.90;4.10;;;;;;;;;;4974578;28;20464;-44
2023/10/26 00:02:59;;;;;;;7.33;4.27;;;;;;;;;;4974913;28;20613;-44
2023/10/26 00:05:25;;;;;;;22.03;17.03;;;;;;;;;;4974716;28;20901;-44
2023/10/26 00:07:51;;;;;;;44.33;28.63;;;;;;;;;;4974643;28;20411;-44
2023/10/26 00:10:20;;;;;;;40.03;24.63;;;;;;;;;;4974544;28;20428;-44
2023/10/26 00:12:46;;;;;;;53.80;31.13;;;;;;;;;;4974559;28;20417;-44
2023/10/26 00:15:12;;;;;;;29.73;22.03;;;;;;;;;;4974807;28;20493;-44
2023/10/26 00:17:39;;;;;;;23.77;14.23;;;;;;;;;;4974542;28;20409;-44
2023/10/26 00:20:08;;;;;;;7.33;4.30;;;;;;;;;;4974260;28;20464;-45
2023/10/26 00:22:33;;;;;;;8.37;4.90;;;;;;;;;;4974858;28;20464;-44
2023/10/26 00:24:59;;;;;;;10.10;8.83;;;;;;;;;;4974437;28;20416;-45
2023/10/26 00:27:25;;;;;;;38.63;20.80;;;;;;;;;;4972969;28;20420;-44
2023/10/26 00:29:51;;;;;;;8.53;5.87;;;;;;;;;;4973995;28;20802;-45
2023/10/26 00:32:17;;;;;;;7.90;4.03;;;;;;;;;;4974279;28;20789;-45
2023/10/26 00:34:43;;;;;;;55.07;31.13;;;;;;;;;;4973881;28;20741;-44
2023/10/26 00:37:09;;;;;;;46.97;27.63;;;;;;;;;;4974354;28;20407;-44
2023/10/26 00:39:36;;;;;;;7.43;4.43;;;;;;;;;;4970489;28;20429;-44
2023/10/26 00:42:01;;;;;;;7.87;4.63;;;;;;;;;;4970535;28;20425;-44
2023/10/26 00:44:27;;;;;;;8.87;6.33;;;;;;;;;;4974146;28;20921;-44
2023/10/26 00:46:54;;;;;;;6.90;4.10;;;;;;;;;;4967226;28;20474;-44
2023/10/26 00:49:21;;;;;;;28.83;21.57;;;;;;;;;;4973809;28;20427;-44
2023/10/26 00:51:55;;;;;;;40.23;24.27;;;;;;;;;;4971264;28;20476;-44
2023/10/26 00:54:23;;;;;;;30.57;21.43;;;;;;;;;;4966877;28;20415;-45
2023/10/26 00:56:50;;;;;;;48.00;27.03;;;;;;;;;;4973542;28;20436;-44
2023/10/26 00:59:17;;;;;;;55.53;30.10;;;;;;;;;;4968691;28;20415;-44
2023/10/26 01:01:47;;;;;;;8.53;5.47;;;;;;;;;;4973590;28;20465;-44
2023/10/26 01:04:16;;;;;;;40.87;26.40;;;;;;;;;;4972515;28;20413;-44
2023/10/26 01:06:43;;;;;;;49.10;33.43;;;;;;;;;;4973559;28;20464;-45
2023/10/26 01:09:09;;;;;;;9.13;5.10;;;;;;;;;;4972893;28;21029;-44
2023/10/26 01:11:39;;;;;;;7.67;4.43;;;;;;;;;;4973672;28;20777;-46
2023/10/26 01:14:05;;;;;;;7.20;3.93;;;;;;;;;;4973847;28;20492;-44
2023/10/26 01:16:32;;;;;;;6.87;3.57;;;;;;;;;;4973756;28;20405;-45
2023/10/26 01:19:01;;;;;;;8.77;4.40;;;;;;;;;;4973865;28;20444;-45
2023/10/26 01:21:28;;;;;;;7.50;4.27;;;;;;;;;;4973516;28;20454;-44
2023/10/26 01:23:54;;;;;;;6.20;3.63;;;;;;;;;;4973697;28;20405;-44
2023/10/26 01:26:20;;;;;;;48.47;29.03;;;;;;;;;;4973610;28;20518;-45
2023/10/26 01:28:46;;;;;;;49.20;28.23;;;;;;;;;;4973415;28;20927;-45
2023/10/26 01:31:15;;;;;;;18.97;17.00;;;;;;;;;;4973379;28;20472;-44
2023/10/26 01:33:41;;;;;;;67.07;37.77;;;;;;;;;;4973402;28;20922;-45
2023/10/26 01:36:07;;;;;;;21.63;18.03;;;;;;;;;;4973207;28;20413;-45
2023/10/26 01:38:33;;;;;;;8.87;6.27;;;;;;;;;;4973504;28;20418;-44
2023/10/26 01:40:59;;;;;;;7.73;5.20;;;;;;;;;;4972697;28;20957;-45
2023/10/26 01:43:25;;;;;;;9.20;7.80;;;;;;;;;;4973309;28;20492;-44
2023/10/26 01:45:51;;;;;;;25.20;21.77;;;;;;;;;;4973225;28;20410;-45
2023/10/26 01:48:17;;;;;;;10.40;6.73;;;;;;;;;;4973072;28;20411;-45
2023/10/26 01:50:43;;;;;;;6.83;3.87;;;;;;;;;;4972838;28;20431;-45
2023/10/26 01:53:09;;;;;;;37.70;26.13;;;;;;;;;;4973063;28;20467;-46
2023/10/26 01:55:35;;;;;;;19.37;17.27;;;;;;;;;;4973168;28;20493;-44
2023/10/26 01:58:01;;;;;;;33.57;23.43;;;;;;;;;;4973118;28;20461;-45
2023/10/26 02:00:26;;;;;;;8.57;6.87;;;;;;;;;;4972743;28;20981;-45
2023/10/26 02:02:54;;;;;;;10.13;7.03;;;;;;;;;;4973166;28;20452;-45
2023/10/26 02:05:20;;;;;;;66.20;37.47;;;;;;;;;;4973054;28;20396;-45
2023/10/26 02:07:46;;;;;;;41.00;22.10;;;;;;;;;;4973013;28;20460;-45
2023/10/26 02:10:14;;;;;;;8.80;6.70;;;;;;;;;;4972912;28;20488;-45
2023/10/26 02:12:40;;;;;;;9.57;7.77;;;;;;;;;;4970211;28;20438;-44
2023/10/26 02:15:06;;;;;;;8.43;5.93;;;;;;;;;;4972746;28;20417;-44
2023/10/26 02:17:32;;;;;;;8.40;5.70;;;;;;;;;;4972683;28;20832;-45
2023/10/26 02:19:58;;;;;;;8.03;4.63;;;;;;;;;;4972348;28;20986;-44
2023/10/26 02:22:24;;;;;;;8.67;5.17;;;;;;;;;;4962744;28;20898;-44
2023/10/26 02:24:50;;;;;;;8.00;5.60;;;;;;;;;;4972361;28;20937;-44
2023/10/26 02:27:16;;;;;;;8.20;5.77;;;;;;;;;;4972739;28;20485;-45
2023/10/26 02:29:41;;;;;;;7.33;4.07;;;;;;;;;;4971969;28;20495;-46
2023/10/26 02:32:07;;;;;;;7.50;4.13;;;;;;;;;;4966632;28;20441;-44
2023/10/26 02:34:33;;;;;;;9.10;5.43;;;;;;;;;;4972501;28;20413;-44
2023/10/26 02:37:00;;;;;;;7.70;4.13;;;;;;;;;;4972735;28;20441;-44
2023/10/26 02:39:27;;;;;;;7.77;4.23;;;;;;;;;;4972215;28;20442;-45
2023/10/26 02:41:53;;;;;;;6.87;3.67;;;;;;;;;;4971621;28;20972;-44
2023/10/26 02:44:19;;;;;;;7.57;3.87;;;;;;;;;;4971803;28;20407;-44
2023/10/26 02:46:45;;;;;;;7.03;3.53;;;;;;;;;;4972418;28;20413;-45
2023/10/26 02:49:11;;;;;;;7.63;3.77;;;;;;;;;;4972004;28;20460;-44
2023/10/26 02:51:37;;;;;;;7.27;3.60;;;;;;;;;;4972902;28;20418;-44
2023/10/26 02:54:03;;;;;;;6.70;3.23;;;;;;;;;;4976139;28;20440;-44
2023/10/26 02:56:29;;;;;;;7.20;3.63;;;;;;;;;;4975551;28;20544;-44
2023/10/26 02:58:55;;;;;;;7.30;3.60;;;;;;;;;;4975926;28;20402;-44
2023/10/26 03:01:20;;;;;;;6.73;3.90;;;;;;;;;;4974014;28;20453;-44
2023/10/26 03:03:46;;;;;;;6.83;3.70;;;;;;;;;;4971969;28;20507;-44
2023/10/26 03:06:12;;;;;;;7.20;3.70;;;;;;;;;;4970426;28;20421;-44
2023/10/26 03:08:38;;;;;;;6.87;3.60;;;;;;;;;;4967569;28;20418;-44
2023/10/26 03:11:04;;;;;;;6.70;3.50;;;;;;;;;;4975715;28;20491;-44
2023/10/26 03:13:30;;;;;;;7.40;4.03;;;;;;;;;;4975684;28;20417;-44
2023/10/26 03:15:56;;;;;;;7.50;4.30;;;;;;;;;;4975723;28;20409;-44
2023/10/26 03:18:22;;;;;;;7.00;4.33;;;;;;;;;;4967525;28;20504;-45
2023/10/26 03:20:48;;;;;;;7.57;4.40;;;;;;;;;;4975147;28;20551;-44
2023/10/26 03:23:15;;;;;;;7.43;4.43;;;;;;;;;;4975537;28;20409;-44
2023/10/26 03:25:41;;;;;;;12.03;9.20;;;;;;;;;;4975638;28;20505;-45
2023/10/26 03:28:07;;;;;;;44.50;23.97;;;;;;;;;;4975801;28;20418;-44
2023/10/26 03:30:32;;;;;;;20.70;14.03;;;;;;;;;;4975029;28;20447;-45
2023/10/26 03:32:58;;;;;;;8.40;7.13;;;;;;;;;;4975291;28;20466;-45
2023/10/26 03:35:24;;;;;;;8.13;5.20;;;;;;;;;;4975388;28;20405;-45
2023/10/26 03:37:50;;;;;;;8.77;5.67;;;;;;;;;;4975142;28;20496;-45
2023/10/26 03:40:16;;;;;;;8.33;5.20;;;;;;;;;;4974467;28;20457;-44
2023/10/26 03:42:42;;;;;;;7.30;5.00;;;;;;;;;;4973112;28;20420;-44
2023/10/26 03:45:08;;;;;;;7.57;5.50;;;;;;;;;;4974091;28;20488;-45
2023/10/26 03:47:34;;;;;;;7.67;4.60;;;;;;;;;;4969753;28;20449;-44
2023/10/26 03:50:00;;;;;;;7.70;4.23;;;;;;;;;;4974826;28;20863;-45
2023/10/26 03:52:26;;;;;;;7.27;3.80;;;;;;;;;;4974813;28;20437;-45
2023/10/26 03:54:52;;;;;;;7.00;4.53;;;;;;;;;;4975121;28;20417;-44
2023/10/26 03:57:18;;;;;;;8.03;4.90;;;;;;;;;;4972980;28;20426;-45
2023/10/26 03:59:44;;;;;;;9.07;6.17;;;;;;;;;;4970859;28;20446;-45
2023/10/26 04:02:11;;;;;;;8.10;4.53;;;;;;;;;;4969324;28;20413;-45
2023/10/26 04:04:37;;;;;;;14.73;10.03;;;;;;;;;;4967971;28;20945;-44
2023/10/26 04:07:02;;;;;;;40.57;23.27;;;;;;;;;;4974860;28;20401;-44
2023/10/26 04:09:28;;;;;;;34.23;19.00;;;;;;;;;;4975176;28;20433;-45
2023/10/26 04:11:54;;;;;;;51.97;25.50;;;;;;;;;;4974704;28;20836;-44
2023/10/26 04:14:24;;;;;;;10.00;8.97;;;;;;;;;;4974663;28;20444;-45
2023/10/26 04:16:50;;;;;;;46.00;27.23;;;;;;;;;;4974785;28;20401;-44
2023/10/26 04:19:16;;;;;;;11.00;7.23;;;;;;;;;;4974394;28;20409;-45
2023/10/26 04:21:42;;;;;;;20.47;15.23;;;;;;;;;;4974618;28;20460;-44
2023/10/26 04:24:08;;;;;;;26.57;18.43;;;;;;;;;;4974664;28;20412;-45
2023/10/26 04:26:34;;;;;;;18.53;12.90;;;;;;;;;;4974614;28;20411;-44
2023/10/26 04:29:00;;;;;;;15.53;11.57;;;;;;;;;;4974199;28;20513;-45
2023/10/26 04:31:28;;;;;;;10.10;8.37;;;;;;;;;;4974539;28;20783;-45
2023/10/26 04:33:54;;;;;;;60.87;35.37;;;;;;;;;;4974689;28;20476;-45
2023/10/26 04:36:23;;;;;;;8.00;5.27;;;;;;;;;;4974399;28;20409;-44
2023/10/26 04:38:50;;;;;;;7.47;5.30;;;;;;;;;;4974141;28;20471;-45
2023/10/26 04:41:16;;;;;;;8.47;6.13;;;;;;;;;;4974224;28;20480;-44
2023/10/26 04:43:45;;;;;;;8.90;6.70;;;;;;;;;;4974211;28;20405;-44
2023/10/26 04:46:11;;;;;;;28.70;21.03;;;;;;;;;;4974170;28;20413;-45
2023/10/26 04:48:39;;;;;;;37.63;22.40;;;;;;;;;;4974035;28;20421;-44
2023/10/26 04:51:06;;;;;;;8.20;5.33;;;;;;;;;;4973944;28;20467;-45
2023/10/26 04:53:32;;;;;;;7.23;4.47;;;;;;;;;;4974075;28;20507;-44
2023/10/26 04:55:58;;;;;;;7.07;4.37;;;;;;;;;;4974053;28;20513;-45
2023/10/26 04:58:24;;;;;;;8.43;5.40;;;;;;;;;;4974103;28;20437;-45
2023/10/26 05:00:50;;;;;;;7.27;4.47;;;;;;;;;;4973616;28;20462;-44
2023/10/26 05:03:16;;;;;;;8.27;5.57;;;;;;;;;;4973994;28;20436;-45
2023/10/26 05:05:42;;;;;;;7.63;5.03;;;;;;;;;;4973885;28;20779;-44
2023/10/26 05:08:08;;;;;;;8.33;5.10;;;;;;;;;;4973761;28;20397;-44
2023/10/26 05:10:34;;;;;;;8.87;5.40;;;;;;;;;;4973448;28;20452;-44
2023/10/26 05:13:00;;;;;;;8.57;5.43;;;;;;;;;;4973799;28;20413;-46
2023/10/26 05:15:26;;;;;;;7.97;5.20;;;;;;;;;;4973255;28;20811;-45
2023/10/26 05:17:52;;;;;;;6.90;4.03;;;;;;;;;;4973767;28;20437;-44
2023/10/26 05:20:18;;;;;;;7.40;4.47;;;;;;;;;;4973383;28;21030;-45
2023/10/26 05:22:44;;;;;;;11.50;10.40;;;;;;;;;;4974034;28;20418;-45
2023/10/26 05:25:12;;;;;;;26.27;16.70;;;;;;;;;;4973503;28;20405;-45
2023/10/26 05:27:38;;;;;;;31.87;20.10;;;;;;;;;;4973347;28;20406;-44
2023/10/26 05:30:05;;;;;;;59.87;30.83;;;;;;;;;;4973196;28;20561;-44
2023/10/26 05:32:31;;;;;;;50.00;28.13;;;;;;;;;;4973450;28;20795;-45
2023/10/26 05:34:57;;;;;;;13.50;12.30;;;;;;;;;;4973480;28;20405;-45
2023/10/26 05:37:23;;;;;;;13.93;9.30;;;;;;;;;;4973492;28;20732;-44
2023/10/26 05:39:49;;;;;;;18.03;13.53;;;;;;;;;;4972838;28;20988;-45
2023/10/26 05:42:15;;;;;;;21.23;14.70;;;;;;;;;;4973399;28;20484;-45
2023/10/26 05:44:41;;;;;;;8.33;5.50;;;;;;;;;;4973255;28;20405;-45
2023/10/26 05:47:07;;;;;;;8.23;5.07;;;;;;;;;;4973228;28;20397;-45
2023/10/26 05:49:34;;;;;;;8.70;6.03;;;;;;;;;;4972832;28;20428;-44
2023/10/26 05:52:01;;;;;;;8.50;6.03;;;;;;;;;;4973170;28;20748;-44
2023/10/26 05:54:27;;;;;;;9.43;6.03;;;;;;;;;;4973070;28;20415;-44
2023/10/26 05:56:53;;;;;;;7.93;4.70;;;;;;;;;;4973115;28;20460;-45
2023/10/26 05:59:19;;;;;;;8.07;5.30;;;;;;;;;;4972801;28;20932;-44
2023/10/26 06:01:45;;;;;;;6.67;3.67;;;;;;;;;;4973136;28;20905;-44
2023/10/26 06:04:11;;;;;;;7.03;3.70;;;;;;;;;;4973035;28;20768;-44
2023/10/26 06:06:37;;;;;;;7.20;3.60;;;;;;;;;;4973120;28;20401;-45
2023/10/26 06:09:03;;;;;;;9.93;5.43;;;;;;;;;;4972541;28;20398;-45
2023/10/26 06:11:29;;;;;;;7.00;3.60;;;;;;;;;;4972993;28;20409;-44
2023/10/26 06:13:55;;;;;;;7.00;3.83;;;;;;;;;;4973042;28;20419;-44
2023/10/26 06:16:21;;;;;;;6.83;3.57;;;;;;;;;;4973018;28;20410;-44
2023/10/26 06:18:47;;;;;;;7.30;3.87;;;;;;;;;;4972693;28;20463;-44
2023/10/26 06:21:13;;;;;;;6.67;4.20;;;;;;;;;;4972787;28;20474;-44
2023/10/26 06:23:39;;;;;;;7.13;3.93;;;;;;;;;;4972742;28;20500;-45
2023/10/26 06:26:05;;;;;;;6.33;3.50;;;;;;;;;;4974484;28;20406;-44
2023/10/26 06:28:31;;;;;;;7.37;3.80;;;;;;;;;;4976751;28;20877;-44
2023/10/26 06:31:07;;;;;;;6.90;3.40;;;;;;;;;;4976625;28;20437;-44
2023/10/26 06:33:33;;;;;;;6.87;3.90;;;;;;;;;;4976679;28;20444;-45
2023/10/26 06:35:59;;;;;;;18.33;10.40;;;;;;;;;;4974048;28;20766;-45
2023/10/26 06:38:25;;;;;;;8.60;6.97;;;;;;;;;;4976213;28;20451;-44
2023/10/26 06:40:51;;;;;;;7.70;4.83;;;;;;;;;;4975977;28;20504;-44
2023/10/26 06:43:17;;;;;;;7.20;3.87;;;;;;;;;;4976784;28;20416;-44
2023/10/26 06:45:43;;;;;;;13.80;9.47;;;;;;;;;;4976133;28;20409;-44
2023/10/26 06:48:11;;;;;;;29.47;18.30;;;;;;;;;;4971793;28;20409;-44
2023/10/26 06:50:37;;;;;;;8.73;5.00;;;;;;;;;;4976283;28;20437;-44
2023/10/26 06:53:03;;;;;;;13.50;8.23;;;;;;;;;;4976041;28;20436;-44
2023/10/26 06:55:33;;;;;;;22.67;14.30;;;;;;;;;;4976118;28;20543;-45
2023/10/26 06:57:59;;;;;;;26.80;16.80;;;;;;;;;;4968942;28;20409;-44
2023/10/26 07:00:26;;;;;;;21.87;14.57;;;;;;;;;;4974396;28;20460;-44
2023/10/26 07:02:52;;;;;;;21.73;14.03;;;;;;;;;;4973125;28;20413;-44
2023/10/26 07:05:18;;;;;;;7.73;4.77;;;;;;;;;;4971471;28;20409;-45
2023/10/26 07:07:44;;;;;;;8.37;5.20;;;;;;;;;;4969912;28;20417;-44
2023/10/26 07:10:18;;;;;;;9.23;7.10;;;;;;;;;;4970176;28;20446;-44
2023/10/26 07:12:44;;;;;;;8.33;5.20;;;;;;;;;;4974690;28;20421;-44
2023/10/26 07:15:11;;;;;;;9.07;6.77;;;;;;;;;;4975704;28;20409;-44
2023/10/26 07:17:38;;;;;;;7.83;5.80;;;;;;;;;;4972441;28;20430;-45
2023/10/26 07:20:05;;;;;;;7.60;4.77;;;;;;;;;;4975193;28;20435;-44
2023/10/26 07:22:34;;;;;;;7.80;4.60;;;;;;;;;;4979901;28;20415;-45
2023/10/26 07:25:01;;;;;;;29.40;23.50;;;;;;;;;;4974917;28;20421;-45
2023/10/26 07:27:27;;;;;;;11.40;9.27;;;;;;;;;;4974023;28;20843;-45
2023/10/26 07:29:53;;;;;;;11.50;8.63;;;;;;;;;;4974667;28;20439;-45
2023/10/26 07:32:20;;;;;;;19.93;14.53;;;;;;;;;;4974331;28;20493;-45
2023/10/26 07:34:46;;;;;;;19.00;11.83;;;;;;;;;;4974567;28;20468;-45
2023/10/26 07:37:12;;;;;;;22.60;15.40;;;;;;;;;;4974036;28;20408;-45
2023/10/26 07:39:38;;;;;;;43.20;24.77;;;;;;;;;;4974333;28;20438;-45
2023/10/26 07:42:04;;;;;;;27.87;17.03;;;;;;;;;;4974641;28;20854;-45
2023/10/26 07:44:34;;;;;;;7.37;4.73;;;;;;;;;;4972835;28;20418;-45
2023/10/26 07:47:00;;;;;;;6.67;4.27;;;;;;;;;;4974359;28;20507;-45
2023/10/26 07:49:26;;;;;;;7.43;5.33;;;;;;;;;;4973946;28;20769;-45
2023/10/26 07:51:52;;;;;;;7.30;4.73;;;;;;;;;;4963684;28;20928;-45
2023/10/26 07:54:18;;;;;;;46.77;29.67;;;;;;;;;;4969933;28;20427;-45
2023/10/26 07:56:44;;;;;;;8.53;6.13;;;;;;;;;;4965585;28;20480;-45
2023/10/26 07:59:10;;;;;;;11.33;7.83;;;;;;;;;;4973683;28;20414;-45
2023/10/26 08:01:37;;;;;;;8.07;4.50;;;;;;;;;;4974091;28;20466;-45
2023/10/26 08:04:03;;;;;;;7.70;5.77;;;;;;;;;;4973916;28;20419;-45
2023/10/26 08:06:29;;;;;;;7.60;4.50;;;;;;;;;;4973884;28;20925;-45
2023/10/26 08:08:56;;;;;;;8.90;5.23;;;;;;;;;;4972351;28;20458;-45
2023/10/26 08:11:23;;;;;;;8.13;4.40;;;;;;;;;;4973713;28;20800;-44
2023/10/26 08:13:49;;;;;;;6.83;4.27;;;;;;;;;;4965913;28;20906;-45
2023/10/26 08:16:15;;;;;;;60.40;32.60;;;;;;;;;;4968271;28;20461;-44
2023/10/26 08:18:42;;;;;;;28.90;16.67;;;;;;;;;;4972206;28;20427;-44
2023/10/26 08:21:08;;;;;;;34.30;23.63;;;;;;;;;;4973637;28;20471;-44
2023/10/26 08:23:34;;;;;;;42.97;25.00;;;;;;;;;;4973592;28;20767;-44
2023/10/26 08:26:07;;;;;;;11.63;7.00;;;;;;;;;;4973311;28;20451;-44
2023/10/26 08:28:33;;;;;;;8.23;5.90;;;;;;;;;;4973439;28;20420;-44
2023/10/26 08:31:01;;;;;;;9.13;5.67;;;;;;;;;;4973340;28;20435;-45
2023/10/26 08:33:27;;;;;;;9.63;8.70;;;;;;;;;;4973925;28;20425;-44
2023/10/26 08:35:53;;;;;;;33.87;21.97;;;;;;;;;;4973667;28;20868;-44
2023/10/26 08:38:19;;;;;;;7.53;6.70;;;;;;;;;;4973356;28;20485;-44
2023/10/26 08:40:49;;;;;;;10.77;9.27;;;;;;;;;;4973707;28;20485;-45
2023/10/26 08:43:16;;;;;;;16.73;14.20;;;;;;;;;;4973995;28;20503;-44
2023/10/26 08:45:42;;;;;;;19.93;14.10;;;;;;;;;;4968342;28;20900;-44
2023/10/26 08:48:08;;;;;;;29.80;16.67;;;;;;;;;;4969319;28;20483;-44
2023/10/26 08:50:34;;;;;;;30.80;19.70;;;;;;;;;;4969321;28;20429;-44
2023/10/26 08:53:00;;;;;;;21.47;14.30;;;;;;;;;;4967016;28;20436;-45
2023/10/26 08:55:26;;;;;;;7.13;5.27;;;;;;;;;;4971569;28;20412;-44
2023/10/26 08:57:54;;;;;;;85.50;43.17;;;;;;;;;;4961625;28;20901;-45
2023/10/26 09:00:20;;;;;;;20.73;13.03;;;;;;;;;;4973574;28;21062;-44
2023/10/26 09:02:49;;;;;;;40.27;22.80;;;;;;;;;;4973709;28;20420;-44
2023/10/26 09:05:15;;;;;;;15.03;11.57;;;;;;;;;;4972605;28;20417;-44
2023/10/26 09:07:41;;;;;;;10.00;6.30;;;;;;;;;;4972986;28;20779;-45
2023/10/26 09:10:07;;;;;;;7.83;5.07;;;;;;;;;;4973426;28;20428;-44
2023/10/26 09:12:34;;;;;;;7.83;4.83;;;;;;;;;;4973663;28;20501;-45
2023/10/26 09:14:59;;;;;;;9.37;5.40;;;;;;;;;;4973427;28;20491;-45
2023/10/26 09:17:29;;;;;;;8.13;5.57;;;;;;;;;;4973675;28;20495;-44
2023/10/26 09:19:55;;;;;;;8.07;5.40;;;;;;;;;;4973657;28;20426;-44
2023/10/26 09:22:40;;;;;;;7.33;4.70;;;;;;;;;;4973684;28;20406;-44
2023/10/26 09:25:07;;;;;;;7.17;5.40;;;;;;;;;;4973635;28;20404;-44
2023/10/26 09:27:34;;;;;;;8.67;6.03;;;;;;;;;;4973412;28;20967;-46
2023/10/26 09:30:00;;;;;;;7.77;4.70;;;;;;;;;;4973278;28;20414;-44
2023/10/26 09:32:32;;;;;;;7.63;4.30;;;;;;;;;;4973835;28;20892;-44
2023/10/26 09:34:58;;;;;;;7.20;4.07;;;;;;;;;;4973452;28;20399;-44
2023/10/26 09:37:24;;;;;;;7.87;4.73;;;;;;;;;;4973351;28;20414;-44
2023/10/26 09:39:50;;;;;;;8.13;5.20;;;;;;;;;;4972922;28;20439;-44
2023/10/26 09:42:16;;;;;;;7.43;4.13;;;;;;;;;;4973294;28;20800;-44
2023/10/26 09:44:42;;;;;;;7.00;4.27;;;;;;;;;;4973438;28;20407;-44
2023/10/26 09:47:09;;;;;;;8.27;5.50;;;;;;;;;;4973179;28;20931;-44
2023/10/26 09:49:35;;;;;;;7.37;4.97;;;;;;;;;;4972940;28;20425;-45
2023/10/26 09:52:01;;;;;;;13.37;12.10;;;;;;;;;;4972945;28;20422;-44
2023/10/26 09:54:36;;;;;;;21.67;14.27;;;;;;;;;;4973266;28;20771;-44
2023/10/26 09:57:10;;;;;;;8.63;6.73;;;;;;;;;;4973171;28;20453;-44
2023/10/26 09:59:37;;;;;;;58.87;32.97;;;;;;;;;;4972884;28;20435;-44
2023/10/26 10:02:13;;;;;;;51.93;30.47;;;;;;;;;;4973183;28;20545;-44
2023/10/26 10:04:39;;;;;;;7.80;5.33;;;;;;;;;;4973224;28;20410;-44
2023/10/26 10:07:05;;;;;;;7.93;5.30;;;;;;;;;;4972957;28;20900;-44
2023/10/26 10:09:32;;;;;;;7.43;4.70;;;;;;;;;;4971841;28;20534;-44
2023/10/26 10:12:13;;;;;;;7.57;5.60;;;;;;;;;;4972926;28;20415;-45
2023/10/26 10:14:48;;;;;;;7.43;4.80;;;;;;;;;;4973012;28;20396;-44
2023/10/26 10:17:18;;;;;;;9.83;7.10;;;;;;;;;;4972381;28;20432;-44
2023/10/26 10:19:46;;;;;;;10.20;7.43;;;;;;;;;;4970676;28;20951;-44
2023/10/26 10:22:30;;;;;;;10.27;7.70;;;;;;;;;;4970942;28;20456;-45
2023/10/26 10:24:56;;;;;;;8.37;7.57;;;;;;;;;;4972364;28;20393;-44
2023/10/26 10:27:22;;;;;;;89.83;42.43;;;;;;;;;;4972382;28;20394;-44
2023/10/26 10:29:48;;;;;;;18.03;16.53;;;;;;;;;;4965606;28;20489;-44
2023/10/26 10:32:34;;;;;;;59.90;35.13;;;;;;;;;;4972826;28;20411;-45
2023/10/26 10:35:02;;;;;;;59.33;33.77;;;;;;;;;;4972580;28;20765;-44
2023/10/26 10:37:29;;;;;;;33.27;29.03;;;;;;;;;;4973313;28;20485;-44
2023/10/26 10:40:15;;;;;;;22.70;21.27;;;;;;;;;;4972622;28;20403;-44
2023/10/26 10:42:45;;;;;;;15.57;14.47;;;;;;;;;;4972797;28;20414;-44
2023/10/26 10:45:11;;;;;;;92.00;60.30;;;;;;;;;;4972284;28;20486;-44
2023/10/26 10:47:38;;;;;;;26.53;24.30;;;;;;;;;;4972600;28;20487;-44
2023/10/26 10:50:18;;;;;;;21.73;20.27;;;;;;;;;;4972251;28;20422;-44
2023/10/26 10:52:44;;;;;;;94.67;57.43;;;;;;;;;;4984467;23;20505;-45
2023/10/26 10:55:10;;;;;;;79.03;55.73;;;;;;;;;;4967060;28;20851;-45
2023/10/26 10:57:51;;;;;;;57.10;45.90;;;;;;;;;;4972672;28;20479;-45
2023/10/26 11:00:16;;;;;;;142.77;70.80;;;;;;;;;;4971979;28;20394;-46
2023/10/26 11:02:47;;;;;;;36.27;29.70;;;;;;;;;;4972513;28;20424;-45
2023/10/26 11:05:13;;;;;;;21.17;19.70;;;;;;;;;;4972283;28;20401;-46
2023/10/26 11:07:39;;;;;;;19.13;17.53;;;;;;;;;;4965594;28;20558;-46
2023/10/26 11:10:05;;;;;;;18.07;16.77;;;;;;;;;;4972261;28;20422;-45
2023/10/26 11:12:31;;;;;;;16.07;14.87;;;;;;;;;;4972847;28;20452;-45
2023/10/26 11:14:57;;;;;;;19.70;18.30;;;;;;;;;;4975908;28;20415;-46
2023/10/26 11:17:24;;;;;;;17.50;16.30;;;;;;;;;;4970446;28;20757;-45
2023/10/26 11:19:51;;;;;;;20.80;19.33;;;;;;;;;;4971059;28;20507;-46
2023/10/26 11:22:18;;;;;;;19.17;17.77;;;;;;;;;;4973886;28;20429;-46
2023/10/26 11:24:44;;;;;;;20.00;18.60;;;;;;;;;;4975571;28;20402;-45
2023/10/26 11:27:11;;;;;;;23.90;22.07;;;;;;;;;;4975107;28;20418;-45
2023/10/26 11:29:37;;;;;;;49.03;44.60;;;;;;;;;;4968539;28;20412;-46
2023/10/26 11:32:03;;;;;;;65.03;56.63;;;;;;;;;;4974394;28;20491;-46
2023/10/26 11:34:29;;;;;;;199.50;111.80;;;;;;;;;;4974385;28;20387;-46
2023/10/26 11:36:57;;;;;;;133.00;101.37;;;;;;;;;;4975500;28;20386;-46
2023/10/26 11:39:23;;;;;;;87.37;79.77;;;;;;;;;;4974725;28;20409;-46
2023/10/26 11:41:54;;;;;;;191.60;111.17;;;;;;;;;;4974614;28;20459;-46
2023/10/26 11:44:27;;;;;;;37.93;35.73;;;;;;;;;;4975517;28;20386;-47
2023/10/26 11:46:57;;;;;;;156.47;104.53;;;;;;;;;;4975569;28;20400;-46
2023/10/26 11:49:36;;;;;;;175.83;113.33;;;;;;;;;;4975040;28;20464;-46
2023/10/26 11:52:02;;;;;;;76.07;69.07;;;;;;;;;;4974958;28;20415;-46
2023/10/26 11:54:28;;;;;;;64.97;59.00;;;;;;;;;;4975316;28;20417;-45
2023/10/26 11:56:54;;;;;;;154.87;85.80;;;;;;;;;;4975206;28;20408;-45
2023/10/26 11:59:20;;;;;;;55.70;49.87;;;;;;;;;;4974944;28;20517;-45
2023/10/26 12:01:46;;;;;;;28.40;26.60;;;;;;;;;;4974993;28;20521;-45
2023/10/26 12:04:12;;;;;;;23.30;21.80;;;;;;;;;;4975071;28;20424;-45
2023/10/26 12:06:39;;;;;;;22.40;20.90;;;;;;;;;;4974936;28;20401;-45
2023/10/26 12:09:06;;;;;;;23.27;21.60;;;;;;;;;;4974723;28;20406;-45
2023/10/26 12:11:32;;;;;;;42.23;39.07;;;;;;;;;;4974930;28;20382;-46
2023/10/26 12:13:58;;;;;;;46.90;42.60;;;;;;;;;;4974869;28;20481;-45
2023/10/26 12:16:24;;;;;;;81.17;65.43;;;;;;;;;;4974857;28;20814;-46
2023/10/26 12:18:50;;;;;;;40.70;38.10;;;;;;;;;;4974630;28;20414;-46
2023/10/26 12:21:16;;;;;;;24.43;22.77;;;;;;;;;;4974481;28;20526;-46
2023/10/26 12:23:42;;;;;;;40.03;36.77;;;;;;;;;;4974404;28;20411;-46
2023/10/26 12:26:08;;;;;;;23.53;21.70;;;;;;;;;;4974691;28;20486;-45
2023/10/26 12:28:34;;;;;;;20.00;18.60;;;;;;;;;;4974520;28;20390;-46
2023/10/26 12:31:00;;;;;;;39.97;35.33;;;;;;;;;;4974452;28;20855;-45
2023/10/26 12:33:27;;;;;;;85.33;60.40;;;;;;;;;;4974472;28;20431;-45
2023/10/26 12:35:53;;;;;;;60.03;43.57;;;;;;;;;;4974412;28;20555;-45
2023/10/26 12:38:19;;;;;;;24.53;22.93;;;;;;;;;;4974296;28;20417;-45
2023/10/26 12:40:47;;;;;;;33.27;30.37;;;;;;;;;;4974168;28;20535;-46
2023/10/26 12:43:14;;;;;;;90.73;60.77;;;;;;;;;;4974235;28;20408;-45
2023/10/26 12:45:39;;;;;;;39.37;35.33;;;;;;;;;;4974781;28;20381;-46
2023/10/26 12:48:05;;;;;;;19.80;18.50;;;;;;;;;;4971263;28;20771;-45
2023/10/26 12:50:31;;;;;;;41.63;37.60;;;;;;;;;;4969665;28;20423;-45
2023/10/26 12:52:57;;;;;;;23.83;21.80;;;;;;;;;;4972549;28;20443;-45
2023/10/26 12:55:23;;;;;;;36.90;31.93;;;;;;;;;;4973447;28;20423;-45
2023/10/26 12:57:50;;;;;;;94.37;53.60;;;;;;;;;;4973913;28;20416;-45
2023/10/26 13:00:16;;;;;;;20.67;19.00;;;;;;;;;;4972530;28;20412;-44
2023/10/26 13:02:42;;;;;;;51.30;39.77;;;;;;;;;;4973645;28;20996;-45
2023/10/26 13:05:08;;;;;;;62.80;47.53;;;;;;;;;;4973928;28;20411;-45
2023/10/26 13:07:34;;;;;;;104.97;60.47;;;;;;;;;;4973746;28;20407;-44
2023/10/26 13:10:00;;;;;;;83.83;53.43;;;;;;;;;;4973711;28;20465;-45
2023/10/26 13:12:26;;;;;;;88.53;63.53;;;;;;;;;;4974045;28;20427;-45
2023/10/26 13:14:52;;;;;;;56.70;40.97;;;;;;;;;;4973924;28;20410;-46
2023/10/26 13:17:18;;;;;;;18.90;17.60;;;;;;;;;;4973672;28;20385;-45
2023/10/26 13:19:44;;;;;;;32.20;28.90;;;;;;;;;;4973299;28;20417;-45
2023/10/26 13:22:10;;;;;;;77.37;56.50;;;;;;;;;;4973469;28;20468;-46
2023/10/26 13:24:36;;;;;;;35.23;31.23;;;;;;;;;;4973788;28;20536;-46
2023/10/26 13:27:02;;;;;;;49.17;44.17;;;;;;;;;;4973744;28;20413;-45
2023/10/26 13:29:28;;;;;;;24.47;22.97;;;;;;;;;;4973227;28;20413;-46
2023/10/26 13:31:54;;;;;;;32.57;30.23;;;;;;;;;;4972266;28;20415;-46
2023/10/26 13:34:20;;;;;;;29.37;27.40;;;;;;;;;;4973269;28;20776;-46
2023/10/26 13:36:46;;;;;;;30.30;28.40;;;;;;;;;;4972854;28;20503;-46
2023/10/26 13:39:12;;;;;;;58.93;51.93;;;;;;;;;;4972964;28;20408;-46
2023/10/26 13:41:38;;;;;;;51.20;46.77;;;;;;;;;;4973307;28;20866;-46
2023/10/26 13:44:04;;;;;;;139.60;96.00;;;;;;;;;;4973217;28;20406;-46
2023/10/26 13:46:30;;;;;;;109.43;91.47;;;;;;;;;;4973099;28;20452;-46
2023/10/26 13:48:56;;;;;;;42.20;38.73;;;;;;;;;;4972870;28;20375;-47
2023/10/26 13:51:22;;;;;;;25.57;24.07;;;;;;;;;;4973222;28;20409;-47
2023/10/26 13:53:48;;;;;;;29.70;28.17;;;;;;;;;;4972934;28;20492;-46
2023/10/26 13:56:14;;;;;;;71.13;63.87;;;;;;;;;;4973138;28;20413;-46
2023/10/26 13:58:40;;;;;;;105.30;77.17;;;;;;;;;;4972994;28;20413;-45
2023/10/26 14:01:15;;;;;;;97.67;71.87;;;;;;;;;;4972729;28;20507;-46
2023/10/26 14:03:41;;;;;;;104.50;69.77;;;;;;;;;;4972761;28;20594;-46
2023/10/26 14:06:07;;;;;;;71.40;59.40;;;;;;;;;;4973064;28;20770;-46
2023/10/26 14:08:33;;;;;;;41.47;37.03;;;;;;;;;;4972963;28;20443;-45
2023/10/26 14:10:59;;;;;;;25.70;23.70;;;;;;;;;;4972957;28;20385;-45
2023/10/26 14:13:25;;;;;;;95.43;66.47;;;;;;;;;;4972979;28;20405;-45
2023/10/26 14:15:51;;;;;;;45.87;41.77;;;;;;;;;;4972813;28;20414;-45
2023/10/26 14:18:17;;;;;;;21.37;19.73;;;;;;;;;;4973105;28;20444;-46
2023/10/26 14:20:43;;;;;;;20.90;19.30;;;;;;;;;;4972766;28;20459;-46
2023/10/26 14:23:09;;;;;;;17.97;16.77;;;;;;;;;;4972865;28;20423;-45
2023/10/26 14:25:35;;;;;;;19.33;17.93;;;;;;;;;;4972921;28;20864;-46